• Join FlightAware (Why Join?)
  • Login
  • US Flag 
03:49PM EDT


 

Airport Tracker/Info


-or-


 

Live Flight TrackerFlight Track Log ✈ N662US ✈ 18-Jun-2013 ✈ ZSPD / PVG - RJAA / NRT

Flight Track Log - Related Links

Times and Time Zones

All times are in EDT time to prevent confusion due to time zone crossing. See the N662US flight status page for this flight to view local times or setup timezone preferences in your user account.

Time Position Orientation Groundspeed Altitude Reporting Facility
EDT Latitude Longitude Course Direction KTS MPH feet Rate Location/Type
09:59PM 31.1849 121.9169 68° East  Level Estimated
10:00PM 31.2270 122.0416 68° East  Level Estimated
10:01PM 31.2689 122.1664 69° East  Level Estimated
10:02PM 31.3107 122.2914 69° East  Level Estimated
10:03PM 31.3524 122.4164 69° East  Level Estimated
10:04PM 31.3939 122.5415 69° East  Level Estimated
10:05PM 31.4354 122.6668 69° East  Level Estimated
10:06PM 31.4767 122.7921 69° East  Level Estimated
10:07PM 31.5179 122.9176 69° East  Level Estimated
10:08PM 31.5589 123.0432 69° East  Level Estimated
10:09PM 31.5999 123.1689 69° East  Level Estimated
10:10PM 31.6407 123.2947 69° East  Level Estimated
10:11PM 31.6814 123.4206 69° East  Level Estimated
10:12PM 31.7181 123.5345 69° East  Level Estimated
10:13PM 31.7546 123.6485 69° East  Level Estimated
10:14PM 31.7911 123.7625 69° East  Level Estimated
10:15PM 31.8223 123.8604 69° East  Level Estimated
10:16PM 31.8534 123.9583 69° East  Level Estimated
10:17PM 31.8844 124.0563 70° East  Level Estimated
10:18PM 31.9154 124.1543 70° East  Level Estimated
10:19PM 31.9463 124.2525 70° East  Level Estimated
10:20PM 31.9771 124.3506 70° East  Level Estimated
10:21PM 32.0083 124.4505 70° East  Level Estimated
10:22PM 32.0395 124.5505 70° East  Level Estimated
10:23PM 32.0706 124.6505 70° East  Level Estimated
10:24PM 32.1016 124.7506 70° East  Level Estimated
10:25PM 32.1325 124.8508 70° East  Level Estimated
10:26PM 32.1634 124.9510 70° East  Level Estimated
10:27PM 32.1941 125.0513 70° East  Level Estimated
10:28PM 32.2248 125.1517 70° East  Level Estimated
10:29PM 32.2554 125.2521 70° East  Level Estimated
10:30PM 32.2860 125.3526 70° East  Level Estimated
10:31PM 32.3164 125.4532 70° East  Level Estimated
10:32PM 32.3468 125.5538 70° East  Level Estimated
10:33PM 32.3771 125.6546 70° East  Level Estimated
10:34PM 32.4073 125.7553 70° East  Level Estimated
10:34PM 31.1050 121.8370 70° East 189 217 1,800  Level FlightAware
10:34PM 31.0900 121.8510 141° Southeast 189 217 1,800 1,320 Level FlightAware
10:35PM 31.0440 121.8890 145° Southeast 272 313 3,400 2,640 Climbing FlightAware
10:35PM 31.0250 121.9040 146° Southeast 273 314 4,400 2,400 Climbing FlightAware
10:36PM 30.9920 121.9280 148° Southeast 268 308 5,200 960 Climbing FlightAware
10:36PM 30.9670 121.9500 143° Southeast 280 322 5,300  Climbing FlightAware
10:36PM 30.9590 121.9700 115° Southeast 282 325 5,200 480 Descending FlightAware
10:37PM 30.9630 122.0170 84° East 288 331 5,700 1,740 Climbing FlightAware
10:37PM 30.9720 122.0550 75° East 293 337 6,800 2,820 Climbing FlightAware
10:38PM 30.9810 122.0980 76° East 299 344 8,300 3,060 Climbing FlightAware
10:38PM 30.9880 122.1520 81° East 312 359 9,900 2,640 Climbing FlightAware
10:39PM 30.9990 122.2480 82° East 351 404 12,100 1,800 Climbing FlightAware
10:40PM 31.0010 122.3260 88° East 397 457 12,800 2,400 Climbing FlightAware
10:41PM 30.9990 122.4290 91° East 414 476 15,500 3,240 Climbing FlightAware
10:41PM 31.0000 122.5220 89° East 431 496 17,400 2,400 Climbing FlightAware
10:42PM 31.0000 122.6170 90° East 438 504 18,700 780 Climbing FlightAware
10:43PM 31.0000 122.7310 90° East 434 499 18,700 240 Level FlightAware
10:44PM 31.0000 122.8510 90° East 437 503 19,100 900 Climbing FlightAware
10:45PM 31.0000 122.9660 90° East 446 513 20,200 2,100 Climbing FlightAware
10:45PM 31.0220 123.0330 69° East 455 524 22,100 2,820 Climbing FlightAware
10:46PM 31.0930 123.1520 55° Northeast 470 541 24,100 1,260 Climbing FlightAware
10:47PM 31.1360 123.2220 54° Northeast 470 541 24,100  Level FlightAware
10:47PM 31.1870 123.3040 54° Northeast 470 541 24,100  Level FlightAware
10:48PM 31.2270 123.3680 54° Northeast 470 541 24,100  Level FlightAware
10:49PM 31.2780 123.4510 54° Northeast 470 541 24,100  Level FlightAware
10:49PM 31.3210 123.5190 53° Northeast 470 541 24,100 300 Level FlightAware
10:52PM 31.4126 123.7841 68° East  Level Estimated
10:53PM 31.4561 123.9105 68° East  Level Estimated
10:54PM 31.5000 124.0389 68° East  Level Estimated
10:55PM 31.5438 124.1674 68° East  Level Estimated
10:56PM 31.5872 124.2951 68° East  Level Estimated
10:57PM 31.6304 124.4229 68° East  Level Estimated
10:58PM 31.6735 124.5509 68° East  Level Estimated
10:59PM 31.7165 124.6789 68° East  Level Estimated
11:00PM 31.7594 124.8071 69° East  Level Estimated
11:01PM 31.8021 124.9354 69° East  Level Estimated
11:02PM 31.8447 125.0638 69° East  Level Estimated
11:03PM 31.8872 125.1923 69° East  Level Estimated
11:04PM 31.9296 125.3210 69° East  Level Estimated
11:05PM 31.9718 125.4497 69° East  Level Estimated
11:06PM 32.0139 125.5786 69° East  Level Estimated
11:07PM 32.0558 125.7076 69° East  Level Estimated
11:08PM 32.0976 125.8367 69° East  Level Estimated
11:09PM 32.1393 125.9660 69° East  Level Estimated
11:10PM 32.1809 126.0953 69° East  Level Estimated
11:11PM 32.2223 126.2248 69° East  Level Estimated
11:12PM 32.2636 126.3544 69° East  Level Estimated
11:13PM 32.3048 126.4841 69° East  Level Estimated
11:14PM 32.3458 126.6139 69° East  Level Estimated
11:15PM 32.3867 126.7438 70° East  Level Estimated
11:16PM 32.4275 126.8739 70° East  Level Estimated
11:17PM 32.4681 127.0041 70° East  Level Estimated
11:18PM 32.5086 127.1344 70° East  Level Estimated
11:19PM 32.5490 127.2648 70° East  Level Estimated
11:20PM 32.5892 127.3953 70° East  Level Estimated
11:21PM 32.6293 127.5260 70° East  Level Estimated
11:22PM 32.6693 127.6567 70° East  Level Estimated
11:23PM 32.7091 127.7876 70° East  Level Estimated
11:24PM 32.7488 127.9186 70° East  Level Estimated
11:25PM 32.7883 128.0497 70° East  Level Estimated
11:26PM 32.8277 128.1810 70° East  Level Estimated
11:26PM 32.7140 129.2110 70° East 37,000  Level FlightAware
11:26PM 32.7430 129.3170 72° East 495 570 37,000  Level FlightAware
11:27PM 32.8670 128.3123 70° East  Level Estimated
11:27PM 32.7750 129.4350 72° East 497 572 37,000  Level FlightAware
11:28PM 32.8080 129.5580 72° East 499 574 37,000  Level FlightAware
11:29PM 32.8360 129.6630 72° East 504 580 37,000  Level FlightAware
11:29PM 32.8560 129.7720 78° East 505 581 37,000  Level FlightAware
11:30PM 32.8700 129.8730 81° East 507 583 37,000  Level FlightAware
11:31PM 32.8890 129.9990 80° East 506 582 37,000  Level FlightAware
11:31PM 32.9020 130.0930 81° East 506 582 37,000  Level FlightAware
11:32PM 32.9220 130.2330 80° East 507 583 37,000  Level FlightAware
11:33PM 32.9360 130.3340 81° East 506 582 37,000 300 Level FlightAware
11:33PM 32.9550 130.4640 80° East 510 587 37,500 780 Climbing FlightAware
11:34PM 32.9670 130.5530 81° East 511 588 38,100 1,020 Climbing FlightAware
11:35PM 32.9880 130.7000 80° East 512 589 39,000 540 Climbing FlightAware
11:36PM 33.0030 130.8140 81° East 514 592 39,000  Level FlightAware
11:36PM 33.0180 130.9240 81° East 514 592 39,000  Level FlightAware
11:37PM 33.0350 131.0490 81° East 513 590 39,000  Level FlightAware
11:38PM 33.0500 131.1640 81° East 513 590 39,000  Level FlightAware
11:38PM 33.0650 131.2720 81° East 511 588 39,000  Level FlightAware
11:39PM 33.0820 131.3970 81° East 512 589 39,000  Level FlightAware
11:40PM 33.1000 131.5370 81° East 511 588 39,000  Level FlightAware
11:41PM 33.1170 131.6710 81° East 515 593 39,000  Level FlightAware
11:41PM 33.1330 131.7920 81° East 516 594 39,000  Level FlightAware
11:42PM 33.1490 131.9160 81° East 518 596 39,000  Level FlightAware
11:43PM 33.1610 132.0100 81° East 519 597 39,000  Level FlightAware
11:44PM 33.1830 132.1860 81° East 521 600 39,000  Level FlightAware
11:44PM 33.1980 132.3020 81° East 520 598 39,000  Level FlightAware
11:45PM 33.2170 132.4550 82° East 519 597 39,000  Level FlightAware
11:46PM 33.2310 132.5710 82° East 517 595 39,000  Level FlightAware
11:47PM 33.2470 132.6980 81° East 516 594 39,000  Level FlightAware
11:47PM 33.2620 132.8250 82° East 516 594 39,000  Level FlightAware
11:48PM 33.2750 132.9380 82° East 516 594 39,000  Level FlightAware
11:49PM 33.2900 133.0640 82° East 516 594 39,000  Level FlightAware
11:50PM 33.3030 133.1720 82° East 517 595 39,000  Level FlightAware
11:50PM 33.3150 133.2740 82° East 517 595 39,000  Level FlightAware
11:51PM 33.3290 133.3940 82° East 522 601 39,000  Level FlightAware
11:52PM 33.3430 133.5190 82° East 522 601 39,000  Level FlightAware
11:52PM 33.3570 133.6390 82° East 522 601 39,000  Level FlightAware
11:53PM 33.3730 133.7850 82° East 521 600 39,000  Level FlightAware
11:54PM 33.3850 133.8880 82° East 521 600 39,000  Level FlightAware
11:54PM 33.3990 134.0160 83° East 519 597 39,000  Level FlightAware
11:55PM 33.4110 134.1300 83° East 517 595 39,000  Level FlightAware
11:56PM 33.4250 134.2570 82° East 517 595 39,000  Level FlightAware
11:57PM 33.4370 134.3710 83° East 517 595 39,000  Level FlightAware
11:57PM 33.4510 134.4980 82° East 519 597 39,000  Level FlightAware
11:58PM 33.4630 134.6090 83° East 521 600 39,000  Level FlightAware
11:59PM 33.4750 134.7270 83° East 522 601 39,000  Level FlightAware
11:59PM 33.4880 134.8560 83° East 521 600 39,000  Level FlightAware
12:00AM 33.5000 134.9700 83° East 522 601 39,000  Level FlightAware
12:01AM 33.5130 135.1000 83° East 523 602 39,000  Level FlightAware
12:01AM 33.5250 135.2120 83° East 524 603 39,000  Level FlightAware
12:02AM 33.5370 135.3390 83° East 521 600 39,000  Level FlightAware
12:03AM 33.5490 135.4590 83° East 520 598 39,000  Level FlightAware
12:04AM 33.5600 135.5740 83° East 522 601 39,000  Level FlightAware
12:04AM 33.5720 135.6890 83° East 522 601 39,000  Level FlightAware
12:05AM 33.5830 135.8040 83° East 523 602 39,000  Level FlightAware
12:06AM 33.5950 135.9330 84° East 522 601 39,000  Level FlightAware
12:06AM 33.6070 136.0630 84° East 523 602 39,000  Level FlightAware
12:07AM 33.6180 136.1780 83° East 523 602 39,000  Level FlightAware
12:08AM 33.6300 136.3070 84° East 522 601 39,000  Level FlightAware
12:08AM 33.6400 136.4200 84° East 523 602 39,000  Level FlightAware
12:09AM 33.6500 136.5320 84° East 520 598 39,000  Level FlightAware
12:10AM 33.6610 136.6550 84° East 521 600 39,000 -360 Level FlightAware
12:11AM 33.6740 136.8020 84° East 521 600 38,400 -660 Descending FlightAware
12:12AM 33.6860 136.9450 84° East 514 592 37,800 -960 Descending FlightAware
12:12AM 33.6990 137.0800 83° East 512 589 37,100 -960 Descending FlightAware
12:13AM 33.7180 137.2080 80° East 504 580 36,500 -960 Descending FlightAware
12:14AM 33.7410 137.3320 77° East 508 585 35,700 -1,080 Descending FlightAware
12:14AM 33.7610 137.4400 77° East 512 589 35,000 -540 Descending FlightAware
12:15AM 33.7820 137.5540 77° East 513 590 35,000  Level FlightAware
12:16AM 33.8020 137.6630 78° East 515 593 35,000  Level FlightAware
12:17AM 33.8250 137.7920 78° East 517 595 35,000  Level FlightAware
12:17AM 33.8450 137.9000 77° East 518 596 35,000 -240 Level FlightAware
12:18AM 33.8680 138.0290 78° East 517 595 34,700 -960 Descending FlightAware
12:19AM 33.8880 138.1460 78° East 524 603 33,700 -1,500 Descending FlightAware
12:19AM 33.9100 138.2700 78° East 532 612 32,600 -1,500 Descending FlightAware
12:20AM 33.9310 138.3920 78° East 536 617 31,600 -1,320 Descending FlightAware
12:21AM 33.9510 138.5070 78° East 538 619 30,900 -1,080 Descending FlightAware
12:21AM 33.9730 138.6300 78° East 536 617 30,200 -960 Descending FlightAware
12:22AM 33.9960 138.7660 78° East 518 596 29,500 -840 Descending FlightAware
12:23AM 34.0150 138.8780 78° East 485 558 29,000 -420 Descending FlightAware
12:24AM 34.0330 138.9800 78° East 472 543 29,000  Level FlightAware
12:24AM 34.0520 139.0960 79° East 469 540 29,000  Level FlightAware
12:25AM 34.0690 139.1960 78° East 468 539 29,000  Level FlightAware
12:26AM 34.0880 139.3060 78° East 467 537 29,000  Level FlightAware
12:26AM 34.1060 139.4170 79° East 467 537 29,000  Level FlightAware
12:27AM 34.1350 139.5280 72° East 462 532 29,000  Level FlightAware
12:28AM 34.1780 139.6130 59° Northeast 454 522 29,000  Level FlightAware
12:29AM 34.2310 139.7120 57° Northeast 453 521 29,000  Level FlightAware
12:29AM 34.2730 139.7890 57° Northeast 458 527 29,000  Level FlightAware
12:30AM 34.3340 139.9060 58° Northeast 456 525 29,000  Level FlightAware
12:31AM 34.3840 140.0040 58° Northeast 458 527 29,000 -120 Level FlightAware
12:31AM 34.4320 140.0950 57° Northeast 456 525 28,900 -1,080 Descending FlightAware
12:32AM 34.4830 140.1920 57° Northeast 454 522 27,500 -1,380 Descending FlightAware
12:33AM 34.5240 140.2720 58° Northeast 451 519 27,000 -1,320 Descending FlightAware
12:34AM 34.6200 140.4600 58° Northeast 432 497 24,800 -1,800 Descending FlightAware
12:35AM 34.6620 140.5430 58° Northeast 433 498 23,400 -2,160 Descending FlightAware
12:36AM 34.7090 140.6310 57° Northeast 430 495 21,800 -2,220 Descending FlightAware
12:36AM 34.7330 140.6570 42° Northeast 422 486 21,200 -2,400 Descending FlightAware
12:36AM 34.7590 140.6750 30° Northeast 402 463 20,600 -2,160 Descending FlightAware
12:37AM 34.8220 140.6890 10° North 388 447 19,400 -2,100 Descending FlightAware
12:38AM 34.9290 140.7020 North 390 449 17,300 -2,100 Descending FlightAware
12:39AM 35.0260 140.7130 North 373 429 15,400 -2,100 Descending FlightAware
12:39AM 35.1030 140.7220 North 372 428 13,900 -2,100 Descending FlightAware
12:40AM 35.1750 140.7310 North 356 410 12,500 -1,740 Descending FlightAware
12:41AM 35.2350 140.7380 North 355 409 11,500 -840 Descending FlightAware
12:42AM 35.3090 140.7480 North 355 409 11,400 -300 Descending FlightAware
12:42AM 35.3790 140.7450 358° North 326 375 11,100 -420 Descending FlightAware
12:43AM 35.4340 140.7310 348° North 299 344 10,800 -780 Descending FlightAware
12:44AM 35.4900 140.7180 349° North 289 333 10,100 -1,080 Descending FlightAware
12:44AM 35.5470 140.7040 349° North 295 339 9,300 -1,020 Descending FlightAware
12:45AM 35.5890 140.6910 346° North 287 330 8,900 -1,020 Descending FlightAware
12:45AM 35.6220 140.6750 338° Northwest 296 341 8,400 -840 Descending FlightAware
12:45AM 35.6340 140.6680 335° Northwest 298 343 8,400 -420 Level FlightAware
12:46AM 35.6770 140.6450 337° Northwest 280 322 8,100 -1,020 Descending FlightAware
12:46AM 35.7060 140.6280 335° Northwest 284 327 7,400 -1,140 Descending FlightAware
12:47AM 35.7430 140.6080 336° Northwest 268 308 7,100 -600 Descending FlightAware
12:47AM 35.7710 140.5920 335° Northwest 267 307 6,900 -600 Descending FlightAware
12:48AM 35.8060 140.5720 335° Northwest 269 310 6,600 -420 Descending FlightAware
12:48AM 35.8390 140.5530 335° Northwest 267 307 6,500 -60 Descending FlightAware
12:49AM 35.8780 140.5220 327° Northwest 6,400  Descending FlightAware
12:50AM 35.9200 140.4670 313° West 217 250 6,500 -360 Climbing FlightAware
12:50AM 35.9310 140.4400 297° West 220 253 5,900 -1,560 Descending FlightAware
12:51AM 35.9370 140.4050 282° West 230 265 5,100 -1,320 Descending FlightAware
12:51AM 35.9440 140.3670 283° West 226 260 4,600 -840 Descending FlightAware
12:53AM 35.9590 140.2930 284° West 217 250 3,700 -720 Descending FlightAware
12:53AM 35.9040 140.2720 197° South 202 232 3,200 -480 Descending FlightAware
12:54AM 35.8970 140.2770 150° Southeast 195 224 3,200  Level FlightAware
12:54AM 35.8780 140.2890 153° Southeast 195 224 3,200 -900 Level FlightAware
12:55AM 35.8540 140.3120 142° Southeast 183 211 2,300 -1,380 Descending FlightAware
12:55AM 35.8350 140.3240 153° Southeast 179 206 1,900 -480 Descending FlightAware
12:55AM 35.8190 140.3350 151° Southeast 179 206 1,900  Level FlightAware
12:58AM 35.7647 140.3864 142° Southeast  Level Estimated